Skip Navigation Links Skip Navigation Links

Current Weather

Polyarny, Russia

For information only: do not use for flight planning or navigation.
Latest weather
Observation time Friday, December 3, 2021 6:00 PM +08
Local time Friday, December 3, 2021 6:13 PM +08
Flight conditions Marginal Visual Meteorological Conditions
Winds
Wind direction Southeast (130°)
Wind speed 9 mph
Visibility 5 mi.
Present weather light snow
Sky condition
Ceiling 2,000 ft. broken clouds
Cloud layer broken clouds 2,000 ft.
Cloud layer overcast 10,000 ft.
Temperature -17°F
Dewpoint -22°F
Altimeter 29.32 in.Hg
Precipitation
QF 5:41 AM
Derived measurements
Relative humidity 75%
Wind chill -35°F
Density altitude -3074 ft.
Remarks
No significant changes expected in the next two hours.
METAR UERP 031000Z 13004MPS 8000 -SN BKN020 OVC100 M27/M30 Q0993 R35/450240 NOSIG RMK QFE701

Settings

Location code

InnerDrive.Weather 4.0.6770.0 Release CLR 4.0.30319.42000
Copyright ©2018 Inner Drive Technology. All rights reserved. Portions Copyright ©1986-2018 David Braverman.

Find weather

Site navigation


Skip Navigation Links

Place info

Page info

PayPal - The safer, easier way to pay online!

Return home.

Copyright ©2021 Inner Drive Technology. Purveyors of fine, hand-crafted computer software. Page printed 2021-12-03T10:13:53 UTC.